sensor_id;sensor_type;location;lat;lon;timestamp;P1;durP1;ratioP1;P2;durP2;ratioP2
49131;SDS011;35149;51.196;6.204;2023-07-08T00:01:15;3.10;;;1.88;;
49131;SDS011;35149;51.196;6.204;2023-07-08T00:03:43;2.88;;;2.50;;
49131;SDS011;35149;51.196;6.204;2023-07-08T00:06:24;3.30;;;2.78;;
49131;SDS011;35149;51.196;6.204;2023-07-08T00:08:54;3.13;;;2.20;;
49131;SDS011;35149;51.196;6.204;2023-07-08T00:11:25;3.00;;;2.70;;
49131;SDS011;35149;51.196;6.204;2023-07-08T00:13:56;3.85;;;2.28;;
49131;SDS011;35149;51.196;6.204;2023-07-08T00:16:28;4.20;;;2.25;;
49131;SDS011;35149;51.196;6.204;2023-07-08T00:18:57;4.03;;;2.65;;
49131;SDS011;35149;51.196;6.204;2023-07-08T00:21:26;3.58;;;2.47;;
49131;SDS011;35149;51.196;6.204;2023-07-08T00:23:56;3.03;;;2.63;;
49131;SDS011;35149;51.196;6.204;2023-07-08T00:26:29;2.65;;;2.20;;
49131;SDS011;35149;51.196;6.204;2023-07-08T00:29:01;3.58;;;3.05;;
49131;SDS011;35149;51.196;6.204;2023-07-08T00:31:30;3.67;;;2.90;;
49131;SDS011;35149;51.196;6.204;2023-07-08T00:34:00;2.55;;;2.20;;
49131;SDS011;35149;51.196;6.204;2023-07-08T00:36:31;3.22;;;2.92;;
49131;SDS011;35149;51.196;6.204;2023-07-08T00:38:58;2.70;;;2.50;;
49131;SDS011;35149;51.196;6.204;2023-07-08T00:41:35;3.20;;;2.38;;
49131;SDS011;35149;51.196;6.204;2023-07-08T00:44:04;3.95;;;2.58;;
49131;SDS011;35149;51.196;6.204;2023-07-08T00:49:19;3.25;;;3.00;;
49131;SDS011;35149;51.196;6.204;2023-07-08T00:52:16;2.75;;;2.28;;
49131;SDS011;35149;51.196;6.204;2023-07-08T00:55:11;2.65;;;2.42;;
49131;SDS011;35149;51.196;6.204;2023-07-08T00:57:43;2.58;;;2.35;;
49131;SDS011;35149;51.196;6.204;2023-07-08T01:00:14;2.53;;;2.28;;
49131;SDS011;35149;51.196;6.204;2023-07-08T01:02:49;3.22;;;2.63;;
49131;SDS011;35149;51.196;6.204;2023-07-08T01:05:24;2.65;;;2.45;;
49131;SDS011;35149;51.196;6.204;2023-07-08T01:10:31;3.40;;;2.40;;
49131;SDS011;35149;51.196;6.204;2023-07-08T01:13:05;2.88;;;2.03;;
49131;SDS011;35149;51.196;6.204;2023-07-08T01:15:40;3.28;;;2.95;;
49131;SDS011;35149;51.196;6.204;2023-07-08T01:18:09;3.47;;;3.17;;
49131;SDS011;35149;51.196;6.204;2023-07-08T01:20:39;3.38;;;2.58;;
49131;SDS011;35149;51.196;6.204;2023-07-08T01:23:06;3.75;;;2.65;;
49131;SDS011;35149;51.196;6.204;2023-07-08T01:25:35;2.90;;;2.60;;
49131;SDS011;35149;51.196;6.204;2023-07-08T01:28:01;3.38;;;2.67;;
49131;SDS011;35149;51.196;6.204;2023-07-08T01:30:30;3.47;;;2.85;;
49131;SDS011;35149;51.196;6.204;2023-07-08T01:32:59;2.50;;;2.30;;
49131;SDS011;35149;51.196;6.204;2023-07-08T01:35:34;3.00;;;2.70;;
49131;SDS011;35149;51.196;6.204;2023-07-08T01:38:12;3.03;;;2.67;;
49131;SDS011;35149;51.196;6.204;2023-07-08T01:40:52;2.65;;;2.42;;
49131;SDS011;35149;51.196;6.204;2023-07-08T01:43:28;4.15;;;3.03;;
49131;SDS011;35149;51.196;6.204;2023-07-08T01:45:55;3.03;;;2.60;;
49131;SDS011;35149;51.196;6.204;2023-07-08T01:48:29;5.05;;;2.63;;
49131;SDS011;35149;51.196;6.204;2023-07-08T01:51:03;4.47;;;2.35;;
49131;SDS011;35149;51.196;6.204;2023-07-08T01:53:35;3.35;;;2.65;;
49131;SDS011;35149;51.196;6.204;2023-07-08T01:56:16;2.75;;;2.20;;
49131;SDS011;35149;51.196;6.204;2023-07-08T01:58:43;2.83;;;2.55;;
49131;SDS011;35149;51.196;6.204;2023-07-08T02:01:10;3.25;;;2.67;;
49131;SDS011;35149;51.196;6.204;2023-07-08T02:03:36;3.03;;;2.67;;
49131;SDS011;35149;51.196;6.204;2023-07-08T02:06:03;2.97;;;2.42;;
49131;SDS011;35149;51.196;6.204;2023-07-08T02:08:31;2.80;;;2.60;;
49131;SDS011;35149;51.196;6.204;2023-07-08T02:11:09;2.60;;;2.40;;
49131;SDS011;35149;51.196;6.204;2023-07-08T02:13:35;2.58;;;2.38;;
49131;SDS011;35149;51.196;6.204;2023-07-08T02:16:05;2.63;;;2.40;;
49131;SDS011;35149;51.196;6.204;2023-07-08T02:18:32;2.75;;;2.50;;
49131;SDS011;35149;51.196;6.204;2023-07-08T02:21:01;2.70;;;2.45;;
49131;SDS011;35149;51.196;6.204;2023-07-08T02:23:33;2.65;;;2.45;;
49131;SDS011;35149;51.196;6.204;2023-07-08T02:25:59;3.08;;;2.88;;
49131;SDS011;35149;51.196;6.204;2023-07-08T02:28:26;2.50;;;2.30;;
49131;SDS011;35149;51.196;6.204;2023-07-08T02:31:01;2.55;;;2.35;;
49131;SDS011;35149;51.196;6.204;2023-07-08T02:33:33;3.15;;;2.75;;
49131;SDS011;35149;51.196;6.204;2023-07-08T02:36:00;3.35;;;2.25;;
49131;SDS011;35149;51.196;6.204;2023-07-08T02:38:28;5.43;;;2.58;;
49131;SDS011;35149;51.196;6.204;2023-07-08T02:40:55;5.65;;;2.30;;
49131;SDS011;35149;51.196;6.204;2023-07-08T02:43:22;2.75;;;2.22;;
49131;SDS011;35149;51.196;6.204;2023-07-08T02:45:52;3.03;;;2.55;;
49131;SDS011;35149;51.196;6.204;2023-07-08T02:48:21;2.92;;;2.67;;
49131;SDS011;35149;51.196;6.204;2023-07-08T02:50:50;5.32;;;2.88;;
49131;SDS011;35149;51.196;6.204;2023-07-08T02:53:23;2.25;;;2.08;;
49131;SDS011;35149;51.196;6.204;2023-07-08T02:55:50;2.80;;;2.50;;
49131;SDS011;35149;51.196;6.204;2023-07-08T02:58:18;3.17;;;2.63;;
49131;SDS011;35149;51.196;6.204;2023-07-08T03:00:55;2.78;;;2.38;;
49131;SDS011;35149;51.196;6.204;2023-07-08T03:03:30;2.47;;;2.08;;
49131;SDS011;35149;51.196;6.204;2023-07-08T03:06:00;3.03;;;2.67;;
49131;SDS011;35149;51.196;6.204;2023-07-08T03:08:29;4.65;;;2.83;;
49131;SDS011;35149;51.196;6.204;2023-07-08T03:10:59;4.05;;;2.50;;
49131;SDS011;35149;51.196;6.204;2023-07-08T03:13:29;3.15;;;2.50;;
49131;SDS011;35149;51.196;6.204;2023-07-08T03:15:59;3.00;;;2.50;;
49131;SDS011;35149;51.196;6.204;2023-07-08T03:18:28;2.95;;;2.30;;
49131;SDS011;35149;51.196;6.204;2023-07-08T03:20:58;3.55;;;2.65;;
49131;SDS011;35149;51.196;6.204;2023-07-08T03:23:29;3.10;;;2.80;;
49131;SDS011;35149;51.196;6.204;2023-07-08T03:25:55;4.50;;;2.60;;
49131;SDS011;35149;51.196;6.204;2023-07-08T03:28:23;3.15;;;2.85;;
49131;SDS011;35149;51.196;6.204;2023-07-08T03:30:52;3.85;;;2.60;;
49131;SDS011;35149;51.196;6.204;2023-07-08T03:33:22;2.50;;;2.30;;
49131;SDS011;35149;51.196;6.204;2023-07-08T03:35:50;2.50;;;2.30;;
49131;SDS011;35149;51.196;6.204;2023-07-08T03:38:18;2.60;;;2.30;;
49131;SDS011;35149;51.196;6.204;2023-07-08T03:40:47;3.72;;;2.58;;
49131;SDS011;35149;51.196;6.204;2023-07-08T03:43:18;4.25;;;2.65;;
49131;SDS011;35149;51.196;6.204;2023-07-08T03:45:54;2.72;;;2.53;;
49131;SDS011;35149;51.196;6.204;2023-07-08T03:48:23;2.47;;;2.28;;
49131;SDS011;35149;51.196;6.204;2023-07-08T03:51:02;3.15;;;2.78;;
49131;SDS011;35149;51.196;6.204;2023-07-08T03:55:58;2.35;;;2.15;;
49131;SDS011;35149;51.196;6.204;2023-07-08T03:58:28;3.17;;;2.70;;
49131;SDS011;35149;51.196;6.204;2023-07-08T04:00:57;3.30;;;3.00;;
49131;SDS011;35149;51.196;6.204;2023-07-08T04:03:27;3.03;;;2.67;;
49131;SDS011;35149;51.196;6.204;2023-07-08T04:05:53;2.95;;;2.75;;
49131;SDS011;35149;51.196;6.204;2023-07-08T04:08:22;3.47;;;2.92;;
49131;SDS011;35149;51.196;6.204;2023-07-08T04:10:49;2.90;;;2.70;;
49131;SDS011;35149;51.196;6.204;2023-07-08T04:13:18;2.58;;;2.35;;
49131;SDS011;35149;51.196;6.204;2023-07-08T04:15:51;5.07;;;3.67;;
49131;SDS011;35149;51.196;6.204;2023-07-08T04:18:22;2.65;;;2.47;;
49131;SDS011;35149;51.196;6.204;2023-07-08T04:20:48;3.03;;;2.72;;
49131;SDS011;35149;51.196;6.204;2023-07-08T04:23:24;5.82;;;2.72;;
49131;SDS011;35149;51.196;6.204;2023-07-08T04:25:52;3.35;;;2.58;;
49131;SDS011;35149;51.196;6.204;2023-07-08T04:28:24;3.33;;;3.03;;
49131;SDS011;35149;51.196;6.204;2023-07-08T04:30:53;3.40;;;2.90;;
49131;SDS011;35149;51.196;6.204;2023-07-08T04:33:25;3.92;;;2.80;;
49131;SDS011;35149;51.196;6.204;2023-07-08T04:35:54;4.28;;;3.10;;
49131;SDS011;35149;51.196;6.204;2023-07-08T04:38:22;3.25;;;2.95;;
49131;SDS011;35149;51.196;6.204;2023-07-08T04:40:51;3.53;;;3.00;;
49131;SDS011;35149;51.196;6.204;2023-07-08T04:43:19;2.95;;;2.65;;
49131;SDS011;35149;51.196;6.204;2023-07-08T04:45:50;4.72;;;3.08;;
49131;SDS011;35149;51.196;6.204;2023-07-08T04:48:19;3.50;;;3.20;;
49131;SDS011;35149;51.196;6.204;2023-07-08T04:50:50;3.97;;;3.10;;
49131;SDS011;35149;51.196;6.204;2023-07-08T04:53:20;3.90;;;3.13;;
49131;SDS011;35149;51.196;6.204;2023-07-08T04:55:51;3.40;;;3.10;;
49131;SDS011;35149;51.196;6.204;2023-07-08T04:58:22;3.50;;;3.20;;
49131;SDS011;35149;51.196;6.204;2023-07-08T05:00:48;4.57;;;3.08;;
49131;SDS011;35149;51.196;6.204;2023-07-08T05:03:16;5.18;;;3.05;;
49131;SDS011;35149;51.196;6.204;2023-07-08T05:05:44;4.53;;;2.92;;
49131;SDS011;35149;51.196;6.204;2023-07-08T05:08:14;3.45;;;3.15;;
49131;SDS011;35149;51.196;6.204;2023-07-08T05:10:42;3.10;;;2.75;;
49131;SDS011;35149;51.196;6.204;2023-07-08T05:13:10;3.13;;;2.75;;
49131;SDS011;35149;51.196;6.204;2023-07-08T05:15:36;3.55;;;2.67;;
49131;SDS011;35149;51.196;6.204;2023-07-08T05:18:05;3.45;;;3.15;;
49131;SDS011;35149;51.196;6.204;2023-07-08T05:20:35;3.88;;;3.42;;
49131;SDS011;35149;51.196;6.204;2023-07-08T05:23:05;3.90;;;3.38;;
49131;SDS011;35149;51.196;6.204;2023-07-08T05:25:32;3.47;;;3.17;;
49131;SDS011;35149;51.196;6.204;2023-07-08T05:27:59;5.45;;;3.25;;
49131;SDS011;35149;51.196;6.204;2023-07-08T05:30:28;3.58;;;3.00;;
49131;SDS011;35149;51.196;6.204;2023-07-08T05:32:55;4.13;;;3.30;;
49131;SDS011;35149;51.196;6.204;2023-07-08T05:35:21;4.50;;;3.63;;
49131;SDS011;35149;51.196;6.204;2023-07-08T05:37:53;4.40;;;4.00;;
49131;SDS011;35149;51.196;6.204;2023-07-08T05:40:23;3.50;;;3.08;;
49131;SDS011;35149;51.196;6.204;2023-07-08T05:42:49;4.18;;;3.40;;
49131;SDS011;35149;51.196;6.204;2023-07-08T05:45:16;3.83;;;3.47;;
49131;SDS011;35149;51.196;6.204;2023-07-08T05:47:46;3.70;;;3.40;;
49131;SDS011;35149;51.196;6.204;2023-07-08T05:50:18;5.72;;;4.03;;
49131;SDS011;35149;51.196;6.204;2023-07-08T05:52:45;4.20;;;3.80;;
49131;SDS011;35149;51.196;6.204;2023-07-08T05:55:16;4.53;;;3.47;;
49131;SDS011;35149;51.196;6.204;2023-07-08T05:57:44;4.38;;;3.97;;
49131;SDS011;35149;51.196;6.204;2023-07-08T06:00:15;4.03;;;3.60;;
49131;SDS011;35149;51.196;6.204;2023-07-08T06:03:03;4.22;;;3.58;;
49131;SDS011;35149;51.196;6.204;2023-07-08T06:05:29;4.68;;;3.58;;
49131;SDS011;35149;51.196;6.204;2023-07-08T06:07:57;4.65;;;3.97;;
49131;SDS011;35149;51.196;6.204;2023-07-08T06:10:24;4.68;;;3.75;;
49131;SDS011;35149;51.196;6.204;2023-07-08T06:12:51;4.75;;;4.25;;
49131;SDS011;35149;51.196;6.204;2023-07-08T06:15:22;5.43;;;3.70;;
49131;SDS011;35149;51.196;6.204;2023-07-08T06:17:49;6.45;;;4.15;;
49131;SDS011;35149;51.196;6.204;2023-07-08T06:20:16;4.75;;;4.35;;
49131;SDS011;35149;51.196;6.204;2023-07-08T06:22:42;5.47;;;4.15;;
49131;SDS011;35149;51.196;6.204;2023-07-08T06:25:14;4.95;;;3.97;;
49131;SDS011;35149;51.196;6.204;2023-07-08T06:27:40;3.83;;;3.42;;
49131;SDS011;35149;51.196;6.204;2023-07-08T06:30:08;6.28;;;3.80;;
49131;SDS011;35149;51.196;6.204;2023-07-08T06:32:37;6.63;;;4.18;;
49131;SDS011;35149;51.196;6.204;2023-07-08T06:35:04;3.67;;;3.38;;
49131;SDS011;35149;51.196;6.204;2023-07-08T06:37:31;6.30;;;3.97;;
49131;SDS011;35149;51.196;6.204;2023-07-08T06:39:57;4.57;;;4.03;;
49131;SDS011;35149;51.196;6.204;2023-07-08T06:42:24;5.85;;;4.65;;
49131;SDS011;35149;51.196;6.204;2023-07-08T06:45:15;6.25;;;4.47;;
49131;SDS011;35149;51.196;6.204;2023-07-08T06:47:44;5.97;;;4.38;;
49131;SDS011;35149;51.196;6.204;2023-07-08T06:52:40;6.07;;;4.32;;
49131;SDS011;35149;51.196;6.204;2023-07-08T06:55:09;6.97;;;4.60;;
49131;SDS011;35149;51.196;6.204;2023-07-08T06:57:43;6.35;;;4.18;;
49131;SDS011;35149;51.196;6.204;2023-07-08T07:00:16;5.95;;;4.35;;
49131;SDS011;35149;51.196;6.204;2023-07-08T07:02:48;5.68;;;5.15;;
49131;SDS011;35149;51.196;6.204;2023-07-08T07:05:15;5.85;;;4.93;;
49131;SDS011;35149;51.196;6.204;2023-07-08T07:07:48;6.32;;;4.32;;
49131;SDS011;35149;51.196;6.204;2023-07-08T07:10:18;8.13;;;4.90;;
49131;SDS011;35149;51.196;6.204;2023-07-08T07:12:45;5.20;;;4.65;;
49131;SDS011;35149;51.196;6.204;2023-07-08T07:15:14;7.43;;;4.72;;
49131;SDS011;35149;51.196;6.204;2023-07-08T07:17:43;5.68;;;4.65;;
49131;SDS011;35149;51.196;6.204;2023-07-08T07:20:12;8.90;;;4.60;;
49131;SDS011;35149;51.196;6.204;2023-07-08T07:22:39;8.30;;;5.53;;
49131;SDS011;35149;51.196;6.204;2023-07-08T07:25:09;7.35;;;4.55;;
49131;SDS011;35149;51.196;6.204;2023-07-08T07:27:41;13.43;;;5.65;;
49131;SDS011;35149;51.196;6.204;2023-07-08T07:30:10;8.07;;;5.25;;
49131;SDS011;35149;51.196;6.204;2023-07-08T07:32:45;9.32;;;5.65;;
49131;SDS011;35149;51.196;6.204;2023-07-08T07:35:15;8.35;;;6.03;;
49131;SDS011;35149;51.196;6.204;2023-07-08T07:37:45;8.13;;;5.43;;
49131;SDS011;35149;51.196;6.204;2023-07-08T07:40:19;9.38;;;5.53;;
49131;SDS011;35149;51.196;6.204;2023-07-08T07:42:48;8.75;;;4.97;;
49131;SDS011;35149;51.196;6.204;2023-07-08T07:45:14;11.73;;;5.63;;
49131;SDS011;35149;51.196;6.204;2023-07-08T07:47:41;9.43;;;5.78;;
49131;SDS011;35149;51.196;6.204;2023-07-08T07:50:08;8.50;;;5.70;;
49131;SDS011;35149;51.196;6.204;2023-07-08T07:52:35;8.52;;;5.63;;
49131;SDS011;35149;51.196;6.204;2023-07-08T07:55:03;9.35;;;5.60;;
49131;SDS011;35149;51.196;6.204;2023-07-08T07:57:30;7.82;;;5.40;;
49131;SDS011;35149;51.196;6.204;2023-07-08T07:59:56;5.78;;;4.97;;
49131;SDS011;35149;51.196;6.204;2023-07-08T08:02:23;10.30;;;5.57;;
49131;SDS011;35149;51.196;6.204;2023-07-08T08:04:50;6.72;;;5.15;;
49131;SDS011;35149;51.196;6.204;2023-07-08T08:07:16;8.43;;;4.97;;
49131;SDS011;35149;51.196;6.204;2023-07-08T08:09:43;7.50;;;5.47;;
49131;SDS011;35149;51.196;6.204;2023-07-08T08:12:10;10.27;;;5.03;;
49131;SDS011;35149;51.196;6.204;2023-07-08T08:14:37;9.88;;;5.18;;
49131;SDS011;35149;51.196;6.204;2023-07-08T08:17:05;7.40;;;5.05;;
49131;SDS011;35149;51.196;6.204;2023-07-08T08:19:34;8.93;;;5.38;;
49131;SDS011;35149;51.196;6.204;2023-07-08T08:22:03;5.68;;;4.45;;
49131;SDS011;35149;51.196;6.204;2023-07-08T08:24:30;9.13;;;5.07;;
49131;SDS011;35149;51.196;6.204;2023-07-08T08:26:57;9.43;;;4.60;;
49131;SDS011;35149;51.196;6.204;2023-07-08T08:29:25;8.90;;;5.95;;
49131;SDS011;35149;51.196;6.204;2023-07-08T08:31:59;6.45;;;5.07;;
49131;SDS011;35149;51.196;6.204;2023-07-08T08:34:26;8.60;;;5.13;;
49131;SDS011;35149;51.196;6.204;2023-07-08T08:36:52;6.93;;;4.47;;
49131;SDS011;35149;51.196;6.204;2023-07-08T08:39:21;9.82;;;5.47;;
49131;SDS011;35149;51.196;6.204;2023-07-08T08:41:49;8.93;;;5.43;;
49131;SDS011;35149;51.196;6.204;2023-07-08T08:44:21;7.93;;;4.78;;
49131;SDS011;35149;51.196;6.204;2023-07-08T08:47:04;9.43;;;5.43;;
49131;SDS011;35149;51.196;6.204;2023-07-08T08:49:44;6.45;;;4.93;;
49131;SDS011;35149;51.196;6.204;2023-07-08T08:52:17;9.15;;;5.50;;
49131;SDS011;35149;51.196;6.204;2023-07-08T08:54:46;9.43;;;5.00;;
49131;SDS011;35149;51.196;6.204;2023-07-08T08:57:21;10.70;;;5.22;;
49131;SDS011;35149;51.196;6.204;2023-07-08T08:59:52;6.35;;;4.53;;
49131;SDS011;35149;51.196;6.204;2023-07-08T09:05:09;5.80;;;4.82;;
49131;SDS011;35149;51.196;6.204;2023-07-08T09:07:51;7.75;;;4.93;;
49131;SDS011;35149;51.196;6.204;2023-07-08T09:11:09;8.18;;;4.68;;
49131;SDS011;35149;51.196;6.204;2023-07-08T09:13:47;7.70;;;5.20;;
49131;SDS011;35149;51.196;6.204;2023-07-08T09:19:06;11.13;;;5.15;;
49131;SDS011;35149;51.196;6.204;2023-07-08T09:22:04;6.35;;;4.95;;
49131;SDS011;35149;51.196;6.204;2023-07-08T09:24:41;8.45;;;4.82;;
49131;SDS011;35149;51.196;6.204;2023-07-08T09:27:22;9.63;;;5.15;;
49131;SDS011;35149;51.196;6.204;2023-07-08T09:29:49;8.48;;;5.05;;
49131;SDS011;35149;51.196;6.204;2023-07-08T09:34:55;9.43;;;5.32;;
49131;SDS011;35149;51.196;6.204;2023-07-08T09:37:38;6.35;;;5.25;;
49131;SDS011;35149;51.196;6.204;2023-07-08T09:40:15;7.25;;;5.50;;
49131;SDS011;35149;51.196;6.204;2023-07-08T09:42:46;6.70;;;5.18;;
49131;SDS011;35149;51.196;6.204;2023-07-08T09:45:23;8.60;;;5.28;;
49131;SDS011;35149;51.196;6.204;2023-07-08T09:47:54;11.20;;;5.85;;
49131;SDS011;35149;51.196;6.204;2023-07-08T09:52:55;6.85;;;4.53;;
49131;SDS011;35149;51.196;6.204;2023-07-08T09:55:31;6.18;;;4.20;;
49131;SDS011;35149;51.196;6.204;2023-07-08T09:57:57;8.50;;;4.88;;
49131;SDS011;35149;51.196;6.204;2023-07-08T10:00:32;6.65;;;4.28;;
49131;SDS011;35149;51.196;6.204;2023-07-08T10:03:05;9.25;;;5.47;;
49131;SDS011;35149;51.196;6.204;2023-07-08T10:05:47;9.75;;;4.88;;
49131;SDS011;35149;51.196;6.204;2023-07-08T10:08:16;7.55;;;5.40;;
49131;SDS011;35149;51.196;6.204;2023-07-08T10:18:58;8.18;;;5.53;;
49131;SDS011;35149;51.196;6.204;2023-07-08T10:27:21;7.25;;;5.07;;
49131;SDS011;35149;51.196;6.204;2023-07-08T10:35:35;7.53;;;5.57;;
49131;SDS011;35149;51.196;6.204;2023-07-08T10:43:42;9.23;;;4.80;;
49131;SDS011;35149;51.196;6.204;2023-07-08T10:54:48;5.40;;;4.65;;
49131;SDS011;35149;51.196;6.204;2023-07-08T10:57:56;5.25;;;4.57;;
49131;SDS011;35149;51.196;6.204;2023-07-08T11:03:33;6.95;;;4.60;;
49131;SDS011;35149;51.196;6.204;2023-07-08T11:06:32;8.77;;;5.63;;
49131;SDS011;35149;51.196;6.204;2023-07-08T11:09:06;6.50;;;4.75;;
49131;SDS011;35149;51.196;6.204;2023-07-08T11:16:37;7.47;;;6.00;;
49131;SDS011;35149;51.196;6.204;2023-07-08T11:19:11;5.47;;;4.60;;
49131;SDS011;35149;51.196;6.204;2023-07-08T11:21:46;7.75;;;5.40;;
49131;SDS011;35149;51.196;6.204;2023-07-08T11:26:56;5.65;;;5.00;;
49131;SDS011;35149;51.196;6.204;2023-07-08T11:29:25;7.18;;;5.25;;
49131;SDS011;35149;51.196;6.204;2023-07-08T11:32:04;8.13;;;4.95;;
49131;SDS011;35149;51.196;6.204;2023-07-08T11:34:33;8.00;;;4.97;;
49131;SDS011;35149;51.196;6.204;2023-07-08T11:37:01;6.88;;;4.85;;
49131;SDS011;35149;51.196;6.204;2023-07-08T11:39:39;8.02;;;4.78;;
49131;SDS011;35149;51.196;6.204;2023-07-08T11:44:58;7.70;;;4.72;;
49131;SDS011;35149;51.196;6.204;2023-07-08T11:47:26;6.65;;;4.93;;
49131;SDS011;35149;51.196;6.204;2023-07-08T11:50:05;6.55;;;4.93;;
49131;SDS011;35149;51.196;6.204;2023-07-08T11:52:59;5.22;;;4.70;;
49131;SDS011;35149;51.196;6.204;2023-07-08T11:55:38;6.03;;;4.72;;
49131;SDS011;35149;51.196;6.204;2023-07-08T11:58:25;8.65;;;4.90;;
49131;SDS011;35149;51.196;6.204;2023-07-08T12:00:58;5.85;;;4.47;;
49131;SDS011;35149;51.196;6.204;2023-07-08T12:03:55;5.72;;;4.45;;
49131;SDS011;35149;51.196;6.204;2023-07-08T12:08:58;7.13;;;5.07;;
49131;SDS011;35149;51.196;6.204;2023-07-08T12:11:40;5.43;;;4.75;;
49131;SDS011;35149;51.196;6.204;2023-07-08T12:14:10;6.25;;;4.82;;
49131;SDS011;35149;51.196;6.204;2023-07-08T12:16:38;5.97;;;4.63;;
49131;SDS011;35149;51.196;6.204;2023-07-08T12:19:04;5.03;;;4.38;;
49131;SDS011;35149;51.196;6.204;2023-07-08T12:21:35;4.97;;;4.43;;
49131;SDS011;35149;51.196;6.204;2023-07-08T12:24:05;5.30;;;4.10;;
49131;SDS011;35149;51.196;6.204;2023-07-08T12:26:33;5.82;;;4.45;;
49131;SDS011;35149;51.196;6.204;2023-07-08T12:29:00;4.68;;;3.85;;
49131;SDS011;35149;51.196;6.204;2023-07-08T12:31:34;10.35;;;4.70;;
49131;SDS011;35149;51.196;6.204;2023-07-08T12:34:06;5.45;;;4.00;;
49131;SDS011;35149;51.196;6.204;2023-07-08T12:36:40;6.63;;;4.85;;
49131;SDS011;35149;51.196;6.204;2023-07-08T12:39:13;4.60;;;3.50;;
49131;SDS011;35149;51.196;6.204;2023-07-08T12:41:44;4.32;;;3.90;;
49131;SDS011;35149;51.196;6.204;2023-07-08T12:44:22;6.38;;;4.55;;
49131;SDS011;35149;51.196;6.204;2023-07-08T12:46:51;4.10;;;3.72;;
49131;SDS011;35149;51.196;6.204;2023-07-08T12:49:22;5.30;;;4.25;;
49131;SDS011;35149;51.196;6.204;2023-07-08T12:51:53;6.28;;;4.53;;
49131;SDS011;35149;51.196;6.204;2023-07-08T12:54:27;5.57;;;4.28;;
49131;SDS011;35149;51.196;6.204;2023-07-08T12:56:54;5.05;;;4.18;;
49131;SDS011;35149;51.196;6.204;2023-07-08T12:59:23;5.57;;;4.32;;
49131;SDS011;35149;51.196;6.204;2023-07-08T13:01:56;6.45;;;4.60;;
49131;SDS011;35149;51.196;6.204;2023-07-08T13:04:23;4.78;;;4.30;;
49131;SDS011;35149;51.196;6.204;2023-07-08T13:06:54;6.85;;;4.53;;
49131;SDS011;35149;51.196;6.204;2023-07-08T13:09:41;4.63;;;4.03;;
49131;SDS011;35149;51.196;6.204;2023-07-08T13:12:16;5.63;;;4.28;;
49131;SDS011;35149;51.196;6.204;2023-07-08T13:14:54;6.32;;;4.30;;
49131;SDS011;35149;51.196;6.204;2023-07-08T13:17:24;5.57;;;4.05;;
49131;SDS011;35149;51.196;6.204;2023-07-08T13:19:51;4.88;;;4.38;;
49131;SDS011;35149;51.196;6.204;2023-07-08T13:22:21;5.03;;;3.90;;
49131;SDS011;35149;51.196;6.204;2023-07-08T13:24:58;6.07;;;4.07;;
49131;SDS011;35149;51.196;6.204;2023-07-08T13:27:27;6.13;;;4.20;;
49131;SDS011;35149;51.196;6.204;2023-07-08T13:29:55;5.20;;;3.70;;
49131;SDS011;35149;51.196;6.204;2023-07-08T13:32:43;5.65;;;3.67;;
49131;SDS011;35149;51.196;6.204;2023-07-08T13:35:26;5.15;;;4.07;;
49131;SDS011;35149;51.196;6.204;2023-07-08T13:38:05;4.93;;;3.67;;
49131;SDS011;35149;51.196;6.204;2023-07-08T13:40:40;7.13;;;4.47;;
49131;SDS011;35149;51.196;6.204;2023-07-08T13:43:12;3.63;;;3.28;;
49131;SDS011;35149;51.196;6.204;2023-07-08T13:45:43;5.03;;;3.50;;
49131;SDS011;35149;51.196;6.204;2023-07-08T13:48:18;3.45;;;3.15;;
49131;SDS011;35149;51.196;6.204;2023-07-08T13:50:53;4.22;;;3.55;;
49131;SDS011;35149;51.196;6.204;2023-07-08T13:53:26;4.28;;;3.85;;
49131;SDS011;35149;51.196;6.204;2023-07-08T13:56:00;4.32;;;3.60;;
49131;SDS011;35149;51.196;6.204;2023-07-08T13:58:32;3.22;;;2.85;;
49131;SDS011;35149;51.196;6.204;2023-07-08T14:01:09;14.07;;;3.88;;
49131;SDS011;35149;51.196;6.204;2023-07-08T14:03:50;3.47;;;3.17;;
49131;SDS011;35149;51.196;6.204;2023-07-08T14:06:19;4.97;;;3.92;;
49131;SDS011;35149;51.196;6.204;2023-07-08T14:08:55;5.03;;;3.60;;
49131;SDS011;35149;51.196;6.204;2023-07-08T14:11:30;4.00;;;3.63;;
49131;SDS011;35149;51.196;6.204;2023-07-08T14:14:02;4.05;;;3.65;;
49131;SDS011;35149;51.196;6.204;2023-07-08T14:16:32;7.70;;;3.88;;
49131;SDS011;35149;51.196;6.204;2023-07-08T14:19:02;3.92;;;3.63;;
49131;SDS011;35149;51.196;6.204;2023-07-08T14:21:34;4.85;;;4.00;;
49131;SDS011;35149;51.196;6.204;2023-07-08T14:24:08;5.28;;;3.92;;
49131;SDS011;35149;51.196;6.204;2023-07-08T14:26:41;4.35;;;3.95;;
49131;SDS011;35149;51.196;6.204;2023-07-08T14:29:14;4.38;;;3.97;;
49131;SDS011;35149;51.196;6.204;2023-07-08T14:31:41;4.43;;;3.63;;
49131;SDS011;35149;51.196;6.204;2023-07-08T14:34:10;5.35;;;4.40;;
49131;SDS011;35149;51.196;6.204;2023-07-08T14:36:42;4.78;;;3.70;;
49131;SDS011;35149;51.196;6.204;2023-07-08T14:39:18;4.40;;;4.00;;
49131;SDS011;35149;51.196;6.204;2023-07-08T14:41:50;5.50;;;3.97;;
49131;SDS011;35149;51.196;6.204;2023-07-08T14:44:29;4.47;;;4.07;;
49131;SDS011;35149;51.196;6.204;2023-07-08T14:47:02;3.80;;;3.50;;
49131;SDS011;35149;51.196;6.204;2023-07-08T14:49:38;4.88;;;4.38;;
49131;SDS011;35149;51.196;6.204;2023-07-08T14:52:05;5.63;;;4.35;;
49131;SDS011;35149;51.196;6.204;2023-07-08T14:54:35;4.68;;;4.07;;
49131;SDS011;35149;51.196;6.204;2023-07-08T14:57:07;5.43;;;4.47;;
49131;SDS011;35149;51.196;6.204;2023-07-08T14:59:45;3.80;;;3.40;;
49131;SDS011;35149;51.196;6.204;2023-07-08T15:02:19;4.90;;;3.63;;
49131;SDS011;35149;51.196;6.204;2023-07-08T15:04:53;5.72;;;3.13;;
49131;SDS011;35149;51.196;6.204;2023-07-08T15:07:20;6.10;;;4.00;;
49131;SDS011;35149;51.196;6.204;2023-07-08T15:09:46;4.38;;;3.97;;
49131;SDS011;35149;51.196;6.204;2023-07-08T15:12:13;4.45;;;3.83;;
49131;SDS011;35149;51.196;6.204;2023-07-08T15:14:40;4.57;;;3.80;;
49131;SDS011;35149;51.196;6.204;2023-07-08T15:17:12;4.90;;;4.45;;
49131;SDS011;35149;51.196;6.204;2023-07-08T15:19:45;6.25;;;4.07;;
49131;SDS011;35149;51.196;6.204;2023-07-08T15:22:12;6.38;;;4.45;;
49131;SDS011;35149;51.196;6.204;2023-07-08T15:24:39;7.38;;;4.60;;
49131;SDS011;35149;51.196;6.204;2023-07-08T15:27:05;5.50;;;4.32;;
49131;SDS011;35149;51.196;6.204;2023-07-08T15:29:35;4.72;;;4.30;;
49131;SDS011;35149;51.196;6.204;2023-07-08T15:32:01;4.65;;;4.15;;
49131;SDS011;35149;51.196;6.204;2023-07-08T15:34:35;3.88;;;3.55;;
49131;SDS011;35149;51.196;6.204;2023-07-08T15:37:02;4.07;;;3.78;;
49131;SDS011;35149;51.196;6.204;2023-07-08T15:39:29;5.30;;;3.78;;
49131;SDS011;35149;51.196;6.204;2023-07-08T15:41:55;5.13;;;4.53;;
49131;SDS011;35149;51.196;6.204;2023-07-08T15:44:22;6.40;;;3.58;;
49131;SDS011;35149;51.196;6.204;2023-07-08T15:46:49;7.90;;;4.00;;
49131;SDS011;35149;51.196;6.204;2023-07-08T15:49:18;4.50;;;3.70;;
49131;SDS011;35149;51.196;6.204;2023-07-08T15:51:49;6.10;;;4.30;;
49131;SDS011;35149;51.196;6.204;2023-07-08T15:54:16;6.25;;;4.57;;
49131;SDS011;35149;51.196;6.204;2023-07-08T15:56:45;5.22;;;4.63;;
49131;SDS011;35149;51.196;6.204;2023-07-08T15:59:26;5.15;;;4.57;;
49131;SDS011;35149;51.196;6.204;2023-07-08T16:01:57;5.35;;;4.40;;
49131;SDS011;35149;51.196;6.204;2023-07-08T16:04:31;5.57;;;4.28;;
49131;SDS011;35149;51.196;6.204;2023-07-08T16:07:01;14.02;;;4.65;;
49131;SDS011;35149;51.196;6.204;2023-07-08T16:09:27;10.35;;;4.97;;
49131;SDS011;35149;51.196;6.204;2023-07-08T16:11:54;7.43;;;4.60;;
49131;SDS011;35149;51.196;6.204;2023-07-08T16:14:21;5.10;;;4.18;;
49131;SDS011;35149;51.196;6.204;2023-07-08T16:16:52;6.97;;;4.55;;
49131;SDS011;35149;51.196;6.204;2023-07-08T16:19:19;6.45;;;5.07;;
49131;SDS011;35149;51.196;6.204;2023-07-08T16:21:45;5.57;;;5.07;;
49131;SDS011;35149;51.196;6.204;2023-07-08T16:24:13;5.82;;;5.13;;